sensor_id;sensor_type;location;lat;lon;timestamp;P1;durP1;ratioP1;P2;durP2;ratioP2
68192;SDS011;55012;47.562;18.414;2024-01-16T00:01:51;8.15;;;3.90;;
68192;SDS011;55012;47.562;18.414;2024-01-16T00:04:16;7.95;;;3.95;;
68192;SDS011;55012;47.562;18.414;2024-01-16T00:06:42;8.07;;;3.88;;
68192;SDS011;55012;47.562;18.414;2024-01-16T00:09:08;8.98;;;3.72;;
68192;SDS011;55012;47.562;18.414;2024-01-16T00:11:39;8.20;;;4.47;;
68192;SDS011;55012;47.562;18.414;2024-01-16T00:14:06;9.38;;;4.03;;
68192;SDS011;55012;47.562;18.414;2024-01-16T00:16:31;8.77;;;4.28;;
68192;SDS011;55012;47.562;18.414;2024-01-16T00:18:56;7.63;;;3.85;;
68192;SDS011;55012;47.562;18.414;2024-01-16T00:21:22;6.45;;;3.65;;
68192;SDS011;55012;47.562;18.414;2024-01-16T00:23:47;7.45;;;3.70;;
68192;SDS011;55012;47.562;18.414;2024-01-16T00:26:19;6.05;;;3.53;;
68192;SDS011;55012;47.562;18.414;2024-01-16T00:28:47;7.35;;;3.95;;
68192;SDS011;55012;47.562;18.414;2024-01-16T00:31:13;8.27;;;4.07;;
68192;SDS011;55012;47.562;18.414;2024-01-16T00:33:39;9.57;;;4.20;;
68192;SDS011;55012;47.562;18.414;2024-01-16T00:36:05;9.52;;;4.28;;
68192;SDS011;55012;47.562;18.414;2024-01-16T00:38:32;8.68;;;4.50;;
68192;SDS011;55012;47.562;18.414;2024-01-16T00:40:58;10.00;;;4.60;;
68192;SDS011;55012;47.562;18.414;2024-01-16T00:43:24;12.02;;;5.25;;
68192;SDS011;55012;47.562;18.414;2024-01-16T00:45:49;13.38;;;5.50;;
68192;SDS011;55012;47.562;18.414;2024-01-16T00:48:15;9.20;;;4.50;;
68192;SDS011;55012;47.562;18.414;2024-01-16T00:50:40;11.27;;;5.10;;
68192;SDS011;55012;47.562;18.414;2024-01-16T00:53:06;10.85;;;5.18;;
68192;SDS011;55012;47.562;18.414;2024-01-16T00:55:32;11.73;;;5.55;;
68192;SDS011;55012;47.562;18.414;2024-01-16T00:57:57;15.02;;;6.00;;
68192;SDS011;55012;47.562;18.414;2024-01-16T01:00:22;10.38;;;4.55;;
68192;SDS011;55012;47.562;18.414;2024-01-16T01:02:48;10.95;;;5.22;;
68192;SDS011;55012;47.562;18.414;2024-01-16T01:05:13;10.07;;;5.25;;
68192;SDS011;55012;47.562;18.414;2024-01-16T01:07:38;11.02;;;5.28;;
68192;SDS011;55012;47.562;18.414;2024-01-16T01:10:04;13.00;;;5.70;;
68192;SDS011;55012;47.562;18.414;2024-01-16T01:12:30;12.70;;;5.25;;
68192;SDS011;55012;47.562;18.414;2024-01-16T01:14:55;12.38;;;6.03;;
68192;SDS011;55012;47.562;18.414;2024-01-16T01:17:21;11.25;;;5.82;;
68192;SDS011;55012;47.562;18.414;2024-01-16T01:19:46;13.55;;;6.68;;
68192;SDS011;55012;47.562;18.414;2024-01-16T01:22:11;14.95;;;6.68;;
68192;SDS011;55012;47.562;18.414;2024-01-16T01:24:37;14.18;;;6.47;;
68192;SDS011;55012;47.562;18.414;2024-01-16T01:27:03;16.63;;;7.55;;
68192;SDS011;55012;47.562;18.414;2024-01-16T01:29:29;16.25;;;7.22;;
68192;SDS011;55012;47.562;18.414;2024-01-16T01:31:54;14.82;;;6.90;;
68192;SDS011;55012;47.562;18.414;2024-01-16T01:34:19;16.50;;;7.72;;
68192;SDS011;55012;47.562;18.414;2024-01-16T01:36:45;15.13;;;7.68;;
68192;SDS011;55012;47.562;18.414;2024-01-16T01:39:10;17.67;;;7.70;;
68192;SDS011;55012;47.562;18.414;2024-01-16T01:41:36;17.17;;;8.00;;
68192;SDS011;55012;47.562;18.414;2024-01-16T01:44:02;19.13;;;8.32;;
68192;SDS011;55012;47.562;18.414;2024-01-16T01:46:27;15.90;;;7.95;;
68192;SDS011;55012;47.562;18.414;2024-01-16T01:48:54;15.77;;;7.68;;
68192;SDS011;55012;47.562;18.414;2024-01-16T01:51:20;13.98;;;6.78;;
68192;SDS011;55012;47.562;18.414;2024-01-16T01:53:46;16.30;;;7.38;;
68192;SDS011;55012;47.562;18.414;2024-01-16T01:56:15;14.50;;;7.20;;
68192;SDS011;55012;47.562;18.414;2024-01-16T01:58:43;14.77;;;6.93;;
68192;SDS011;55012;47.562;18.414;2024-01-16T02:01:11;16.38;;;7.70;;
68192;SDS011;55012;47.562;18.414;2024-01-16T02:03:42;13.75;;;6.00;;
68192;SDS011;55012;47.562;18.414;2024-01-16T02:06:09;12.40;;;5.80;;
68192;SDS011;55012;47.562;18.414;2024-01-16T02:08:36;10.80;;;5.50;;
68192;SDS011;55012;47.562;18.414;2024-01-16T02:11:01;11.90;;;5.68;;
68192;SDS011;55012;47.562;18.414;2024-01-16T02:13:27;12.95;;;5.70;;
68192;SDS011;55012;47.562;18.414;2024-01-16T02:15:53;11.32;;;5.55;;
68192;SDS011;55012;47.562;18.414;2024-01-16T02:18:18;10.45;;;4.88;;
68192;SDS011;55012;47.562;18.414;2024-01-16T02:20:44;11.57;;;5.82;;
68192;SDS011;55012;47.562;18.414;2024-01-16T02:23:11;12.57;;;5.85;;
68192;SDS011;55012;47.562;18.414;2024-01-16T02:25:39;12.82;;;5.82;;
68192;SDS011;55012;47.562;18.414;2024-01-16T02:28:07;11.70;;;5.25;;
68192;SDS011;55012;47.562;18.414;2024-01-16T02:30:33;11.10;;;5.55;;
68192;SDS011;55012;47.562;18.414;2024-01-16T02:32:58;11.75;;;5.40;;
68192;SDS011;55012;47.562;18.414;2024-01-16T02:35:24;13.55;;;6.38;;
68192;SDS011;55012;47.562;18.414;2024-01-16T02:37:49;15.75;;;6.78;;
68192;SDS011;55012;47.562;18.414;2024-01-16T02:40:15;12.50;;;6.32;;
68192;SDS011;55012;47.562;18.414;2024-01-16T02:42:40;11.30;;;5.28;;
68192;SDS011;55012;47.562;18.414;2024-01-16T02:45:05;12.75;;;5.80;;
68192;SDS011;55012;47.562;18.414;2024-01-16T02:47:31;11.15;;;5.43;;
68192;SDS011;55012;47.562;18.414;2024-01-16T02:49:57;12.63;;;5.70;;
68192;SDS011;55012;47.562;18.414;2024-01-16T02:52:24;12.82;;;5.82;;
68192;SDS011;55012;47.562;18.414;2024-01-16T02:54:49;10.27;;;5.25;;
68192;SDS011;55012;47.562;18.414;2024-01-16T02:57:15;9.10;;;4.05;;
68192;SDS011;55012;47.562;18.414;2024-01-16T02:59:43;8.60;;;4.60;;
68192;SDS011;55012;47.562;18.414;2024-01-16T03:02:09;10.73;;;5.00;;
68192;SDS011;55012;47.562;18.414;2024-01-16T03:04:34;10.20;;;5.38;;
68192;SDS011;55012;47.562;18.414;2024-01-16T03:07:00;10.20;;;5.18;;
68192;SDS011;55012;47.562;18.414;2024-01-16T03:09:25;11.98;;;5.15;;
68192;SDS011;55012;47.562;18.414;2024-01-16T03:11:51;11.63;;;5.32;;
68192;SDS011;55012;47.562;18.414;2024-01-16T03:14:17;9.60;;;4.82;;
68192;SDS011;55012;47.562;18.414;2024-01-16T03:16:43;9.90;;;5.30;;
68192;SDS011;55012;47.562;18.414;2024-01-16T03:19:09;10.25;;;4.78;;
68192;SDS011;55012;47.562;18.414;2024-01-16T03:21:35;10.60;;;4.78;;
68192;SDS011;55012;47.562;18.414;2024-01-16T03:24:00;10.90;;;5.15;;
68192;SDS011;55012;47.562;18.414;2024-01-16T03:26:25;10.55;;;4.85;;
68192;SDS011;55012;47.562;18.414;2024-01-16T03:28:51;10.27;;;4.35;;
68192;SDS011;55012;47.562;18.414;2024-01-16T03:31:16;8.05;;;4.47;;
68192;SDS011;55012;47.562;18.414;2024-01-16T03:33:43;9.50;;;4.72;;
68192;SDS011;55012;47.562;18.414;2024-01-16T03:36:09;8.20;;;4.10;;
68192;SDS011;55012;47.562;18.414;2024-01-16T03:38:35;6.75;;;3.90;;
68192;SDS011;55012;47.562;18.414;2024-01-16T03:41:02;7.72;;;4.10;;
68192;SDS011;55012;47.562;18.414;2024-01-16T03:43:28;9.57;;;4.70;;
68192;SDS011;55012;47.562;18.414;2024-01-16T03:45:56;11.77;;;4.70;;
68192;SDS011;55012;47.562;18.414;2024-01-16T03:48:22;8.57;;;4.40;;
68192;SDS011;55012;47.562;18.414;2024-01-16T03:50:47;7.38;;;3.60;;
68192;SDS011;55012;47.562;18.414;2024-01-16T03:53:13;8.10;;;3.60;;
68192;SDS011;55012;47.562;18.414;2024-01-16T03:55:38;8.52;;;4.10;;
68192;SDS011;55012;47.562;18.414;2024-01-16T03:58:04;9.60;;;4.28;;
68192;SDS011;55012;47.562;18.414;2024-01-16T04:00:29;8.25;;;3.85;;
68192;SDS011;55012;47.562;18.414;2024-01-16T04:02:55;8.23;;;4.03;;
68192;SDS011;55012;47.562;18.414;2024-01-16T04:05:20;8.10;;;4.25;;
68192;SDS011;55012;47.562;18.414;2024-01-16T04:07:45;6.68;;;3.53;;
68192;SDS011;55012;47.562;18.414;2024-01-16T04:10:11;5.93;;;3.30;;
68192;SDS011;55012;47.562;18.414;2024-01-16T04:12:37;7.53;;;3.50;;
68192;SDS011;55012;47.562;18.414;2024-01-16T04:15:02;9.73;;;3.65;;
68192;SDS011;55012;47.562;18.414;2024-01-16T04:17:28;7.82;;;3.88;;
68192;SDS011;55012;47.562;18.414;2024-01-16T04:19:53;7.38;;;3.55;;
68192;SDS011;55012;47.562;18.414;2024-01-16T04:22:19;9.25;;;3.78;;
68192;SDS011;55012;47.562;18.414;2024-01-16T04:24:44;6.60;;;3.30;;
68192;SDS011;55012;47.562;18.414;2024-01-16T04:27:10;8.38;;;3.47;;
68192;SDS011;55012;47.562;18.414;2024-01-16T04:29:36;6.40;;;3.20;;
68192;SDS011;55012;47.562;18.414;2024-01-16T04:32:02;7.05;;;3.45;;
68192;SDS011;55012;47.562;18.414;2024-01-16T04:34:28;7.10;;;3.40;;
68192;SDS011;55012;47.562;18.414;2024-01-16T04:36:53;6.60;;;3.03;;
68192;SDS011;55012;47.562;18.414;2024-01-16T04:39:18;6.35;;;2.92;;
68192;SDS011;55012;47.562;18.414;2024-01-16T04:41:44;5.45;;;3.25;;
68192;SDS011;55012;47.562;18.414;2024-01-16T04:44:09;6.15;;;3.30;;
68192;SDS011;55012;47.562;18.414;2024-01-16T04:46:35;7.07;;;3.42;;
68192;SDS011;55012;47.562;18.414;2024-01-16T04:49:00;6.82;;;3.45;;
68192;SDS011;55012;47.562;18.414;2024-01-16T04:51:25;5.60;;;3.20;;
68192;SDS011;55012;47.562;18.414;2024-01-16T04:53:51;6.90;;;3.25;;
68192;SDS011;55012;47.562;18.414;2024-01-16T04:56:16;6.63;;;3.40;;
68192;SDS011;55012;47.562;18.414;2024-01-16T04:58:41;7.18;;;3.25;;
68192;SDS011;55012;47.562;18.414;2024-01-16T05:01:07;7.20;;;3.33;;
68192;SDS011;55012;47.562;18.414;2024-01-16T05:03:33;7.50;;;3.20;;
68192;SDS011;55012;47.562;18.414;2024-01-16T05:05:58;7.65;;;3.13;;
68192;SDS011;55012;47.562;18.414;2024-01-16T05:08:24;6.88;;;3.38;;
68192;SDS011;55012;47.562;18.414;2024-01-16T05:10:49;7.40;;;3.58;;
68192;SDS011;55012;47.562;18.414;2024-01-16T05:13:14;5.57;;;3.33;;
68192;SDS011;55012;47.562;18.414;2024-01-16T05:15:40;7.25;;;3.35;;
68192;SDS011;55012;47.562;18.414;2024-01-16T05:18:05;8.13;;;3.63;;
68192;SDS011;55012;47.562;18.414;2024-01-16T05:20:31;5.97;;;3.13;;
68192;SDS011;55012;47.562;18.414;2024-01-16T05:22:56;6.80;;;3.25;;
68192;SDS011;55012;47.562;18.414;2024-01-16T05:25:21;6.43;;;3.22;;
68192;SDS011;55012;47.562;18.414;2024-01-16T05:27:47;6.13;;;3.40;;
68192;SDS011;55012;47.562;18.414;2024-01-16T05:30:14;6.32;;;3.22;;
68192;SDS011;55012;47.562;18.414;2024-01-16T05:32:40;7.20;;;3.55;;
68192;SDS011;55012;47.562;18.414;2024-01-16T05:35:06;7.20;;;3.53;;
68192;SDS011;55012;47.562;18.414;2024-01-16T05:37:32;7.60;;;3.30;;
68192;SDS011;55012;47.562;18.414;2024-01-16T05:39:57;6.53;;;3.60;;
68192;SDS011;55012;47.562;18.414;2024-01-16T05:42:22;9.75;;;3.35;;
68192;SDS011;55012;47.562;18.414;2024-01-16T05:44:48;9.13;;;3.78;;
68192;SDS011;55012;47.562;18.414;2024-01-16T05:47:13;7.90;;;3.55;;
68192;SDS011;55012;47.562;18.414;2024-01-16T05:49:39;8.32;;;4.13;;
68192;SDS011;55012;47.562;18.414;2024-01-16T05:52:06;6.25;;;2.92;;
68192;SDS011;55012;47.562;18.414;2024-01-16T05:54:32;6.60;;;3.65;;
68192;SDS011;55012;47.562;18.414;2024-01-16T05:56:57;8.25;;;3.58;;
68192;SDS011;55012;47.562;18.414;2024-01-16T05:59:23;10.07;;;4.70;;
68192;SDS011;55012;47.562;18.414;2024-01-16T06:01:48;8.45;;;4.30;;
68192;SDS011;55012;47.562;18.414;2024-01-16T06:04:14;8.13;;;4.20;;
68192;SDS011;55012;47.562;18.414;2024-01-16T06:06:40;7.63;;;3.60;;
68192;SDS011;55012;47.562;18.414;2024-01-16T06:09:09;6.88;;;3.58;;
68192;SDS011;55012;47.562;18.414;2024-01-16T06:11:37;8.85;;;3.58;;
68192;SDS011;55012;47.562;18.414;2024-01-16T06:14:03;6.55;;;3.28;;
68192;SDS011;55012;47.562;18.414;2024-01-16T06:16:28;8.45;;;3.90;;
68192;SDS011;55012;47.562;18.414;2024-01-16T06:18:54;9.00;;;4.53;;
68192;SDS011;55012;47.562;18.414;2024-01-16T06:21:20;9.77;;;4.32;;
68192;SDS011;55012;47.562;18.414;2024-01-16T06:23:45;9.57;;;4.68;;
68192;SDS011;55012;47.562;18.414;2024-01-16T06:26:11;10.90;;;4.63;;
68192;SDS011;55012;47.562;18.414;2024-01-16T06:28:36;12.30;;;5.65;;
68192;SDS011;55012;47.562;18.414;2024-01-16T06:31:01;12.52;;;5.53;;
68192;SDS011;55012;47.562;18.414;2024-01-16T06:33:27;11.90;;;5.05;;
68192;SDS011;55012;47.562;18.414;2024-01-16T06:35:54;12.85;;;5.28;;
68192;SDS011;55012;47.562;18.414;2024-01-16T06:38:20;11.90;;;5.18;;
68192;SDS011;55012;47.562;18.414;2024-01-16T06:40:45;13.43;;;6.00;;
68192;SDS011;55012;47.562;18.414;2024-01-16T06:43:11;12.93;;;5.68;;
68192;SDS011;55012;47.562;18.414;2024-01-16T06:45:39;12.15;;;5.53;;
68192;SDS011;55012;47.562;18.414;2024-01-16T06:48:05;14.93;;;6.25;;
68192;SDS011;55012;47.562;18.414;2024-01-16T06:50:30;17.23;;;6.90;;
68192;SDS011;55012;47.562;18.414;2024-01-16T06:52:55;14.40;;;5.60;;
68192;SDS011;55012;47.562;18.414;2024-01-16T06:55:21;14.25;;;6.10;;
68192;SDS011;55012;47.562;18.414;2024-01-16T06:57:46;12.35;;;4.97;;
68192;SDS011;55012;47.562;18.414;2024-01-16T07:00:12;10.48;;;4.85;;
68192;SDS011;55012;47.562;18.414;2024-01-16T07:02:39;8.15;;;4.35;;
68192;SDS011;55012;47.562;18.414;2024-01-16T07:05:04;8.55;;;4.53;;
68192;SDS011;55012;47.562;18.414;2024-01-16T07:07:30;9.40;;;4.60;;
68192;SDS011;55012;47.562;18.414;2024-01-16T07:09:55;9.23;;;4.22;;
68192;SDS011;55012;47.562;18.414;2024-01-16T07:12:21;7.32;;;3.75;;
68192;SDS011;55012;47.562;18.414;2024-01-16T07:14:46;11.27;;;4.78;;
68192;SDS011;55012;47.562;18.414;2024-01-16T07:17:12;10.02;;;4.65;;
68192;SDS011;55012;47.562;18.414;2024-01-16T07:19:37;11.10;;;4.60;;
68192;SDS011;55012;47.562;18.414;2024-01-16T07:22:03;11.57;;;4.25;;
68192;SDS011;55012;47.562;18.414;2024-01-16T07:24:28;9.25;;;4.43;;
68192;SDS011;55012;47.562;18.414;2024-01-16T07:26:53;21.33;;;7.40;;
68192;SDS011;55012;47.562;18.414;2024-01-16T07:29:19;28.02;;;9.63;;
68192;SDS011;55012;47.562;18.414;2024-01-16T07:31:46;23.85;;;9.10;;
68192;SDS011;55012;47.562;18.414;2024-01-16T07:34:11;12.48;;;5.18;;
68192;SDS011;55012;47.562;18.414;2024-01-16T07:36:37;11.18;;;5.15;;
68192;SDS011;55012;47.562;18.414;2024-01-16T07:39:02;12.40;;;5.07;;
68192;SDS011;55012;47.562;18.414;2024-01-16T07:41:28;13.07;;;5.10;;
68192;SDS011;55012;47.562;18.414;2024-01-16T07:43:54;13.43;;;5.55;;
68192;SDS011;55012;47.562;18.414;2024-01-16T07:46:19;11.23;;;4.65;;
68192;SDS011;55012;47.562;18.414;2024-01-16T07:48:44;10.82;;;4.60;;
68192;SDS011;55012;47.562;18.414;2024-01-16T07:51:10;12.82;;;5.53;;
68192;SDS011;55012;47.562;18.414;2024-01-16T07:53:36;16.40;;;6.10;;
68192;SDS011;55012;47.562;18.414;2024-01-16T07:56:01;11.75;;;5.55;;
68192;SDS011;55012;47.562;18.414;2024-01-16T07:58:27;14.00;;;5.88;;
68192;SDS011;55012;47.562;18.414;2024-01-16T08:00:52;16.25;;;6.47;;
68192;SDS011;55012;47.562;18.414;2024-01-16T08:03:17;16.13;;;6.13;;
68192;SDS011;55012;47.562;18.414;2024-01-16T08:05:43;16.80;;;6.50;;
68192;SDS011;55012;47.562;18.414;2024-01-16T08:08:08;11.98;;;5.25;;
68192;SDS011;55012;47.562;18.414;2024-01-16T08:10:34;15.95;;;5.75;;
68192;SDS011;55012;47.562;18.414;2024-01-16T08:13:00;12.95;;;5.82;;
68192;SDS011;55012;47.562;18.414;2024-01-16T08:15:25;13.38;;;5.45;;
68192;SDS011;55012;47.562;18.414;2024-01-16T08:17:50;17.45;;;6.07;;
68192;SDS011;55012;47.562;18.414;2024-01-16T08:20:16;14.48;;;5.57;;
68192;SDS011;55012;47.562;18.414;2024-01-16T08:22:42;16.65;;;6.22;;
68192;SDS011;55012;47.562;18.414;2024-01-16T08:25:07;12.48;;;5.25;;
68192;SDS011;55012;47.562;18.414;2024-01-16T08:27:33;13.57;;;6.13;;
68192;SDS011;55012;47.562;18.414;2024-01-16T08:29:58;13.98;;;5.95;;
68192;SDS011;55012;47.562;18.414;2024-01-16T08:32:24;14.18;;;6.18;;
68192;SDS011;55012;47.562;18.414;2024-01-16T08:34:49;14.57;;;6.15;;
68192;SDS011;55012;47.562;18.414;2024-01-16T08:37:15;10.18;;;5.20;;
68192;SDS011;55012;47.562;18.414;2024-01-16T08:39:40;12.38;;;5.30;;
68192;SDS011;55012;47.562;18.414;2024-01-16T08:42:06;13.27;;;5.82;;
68192;SDS011;55012;47.562;18.414;2024-01-16T08:44:31;12.20;;;5.60;;
68192;SDS011;55012;47.562;18.414;2024-01-16T08:46:56;15.27;;;6.00;;
68192;SDS011;55012;47.562;18.414;2024-01-16T08:49:24;13.57;;;6.18;;
68192;SDS011;55012;47.562;18.414;2024-01-16T08:51:49;9.95;;;5.05;;
68192;SDS011;55012;47.562;18.414;2024-01-16T08:54:15;10.98;;;5.13;;
68192;SDS011;55012;47.562;18.414;2024-01-16T08:56:40;11.63;;;4.93;;
68192;SDS011;55012;47.562;18.414;2024-01-16T08:59:05;11.43;;;5.53;;
68192;SDS011;55012;47.562;18.414;2024-01-16T09:01:31;12.27;;;5.38;;
68192;SDS011;55012;47.562;18.414;2024-01-16T09:03:56;11.38;;;5.10;;
68192;SDS011;55012;47.562;18.414;2024-01-16T09:06:21;11.27;;;4.38;;
68192;SDS011;55012;47.562;18.414;2024-01-16T09:08:47;9.07;;;4.15;;
68192;SDS011;55012;47.562;18.414;2024-01-16T09:11:12;11.77;;;4.80;;
68192;SDS011;55012;47.562;18.414;2024-01-16T09:13:37;14.57;;;5.10;;
68192;SDS011;55012;47.562;18.414;2024-01-16T09:16:03;9.70;;;4.55;;
68192;SDS011;55012;47.562;18.414;2024-01-16T09:18:29;11.88;;;4.75;;
68192;SDS011;55012;47.562;18.414;2024-01-16T09:20:54;10.32;;;4.78;;
68192;SDS011;55012;47.562;18.414;2024-01-16T09:23:20;8.40;;;3.65;;
68192;SDS011;55012;47.562;18.414;2024-01-16T09:25:45;10.10;;;4.43;;
68192;SDS011;55012;47.562;18.414;2024-01-16T09:28:11;9.55;;;4.22;;
68192;SDS011;55012;47.562;18.414;2024-01-16T09:30:37;9.00;;;4.15;;
68192;SDS011;55012;47.562;18.414;2024-01-16T09:33:03;9.93;;;3.97;;
68192;SDS011;55012;47.562;18.414;2024-01-16T09:35:31;8.15;;;3.95;;
68192;SDS011;55012;47.562;18.414;2024-01-16T09:37:57;8.35;;;4.28;;
68192;SDS011;55012;47.562;18.414;2024-01-16T09:40:24;10.02;;;4.20;;
68192;SDS011;55012;47.562;18.414;2024-01-16T09:42:50;11.02;;;4.70;;
68192;SDS011;55012;47.562;18.414;2024-01-16T09:45:19;10.10;;;3.97;;
68192;SDS011;55012;47.562;18.414;2024-01-16T09:47:45;9.73;;;3.92;;
68192;SDS011;55012;47.562;18.414;2024-01-16T09:50:12;8.60;;;4.30;;
68192;SDS011;55012;47.562;18.414;2024-01-16T09:52:41;11.80;;;5.00;;
68192;SDS011;55012;47.562;18.414;2024-01-16T09:55:06;10.55;;;4.57;;
68192;SDS011;55012;47.562;18.414;2024-01-16T09:57:32;15.07;;;5.03;;
68192;SDS011;55012;47.562;18.414;2024-01-16T09:59:59;10.90;;;4.70;;
68192;SDS011;55012;47.562;18.414;2024-01-16T10:02:25;12.07;;;4.65;;
68192;SDS011;55012;47.562;18.414;2024-01-16T10:04:52;8.90;;;4.18;;
68192;SDS011;55012;47.562;18.414;2024-01-16T10:07:17;9.88;;;4.22;;
68192;SDS011;55012;47.562;18.414;2024-01-16T10:09:50;10.43;;;4.35;;
68192;SDS011;55012;47.562;18.414;2024-01-16T10:12:16;8.65;;;4.32;;
68192;SDS011;55012;47.562;18.414;2024-01-16T10:14:41;12.13;;;4.13;;
68192;SDS011;55012;47.562;18.414;2024-01-16T10:17:08;8.88;;;3.83;;
68192;SDS011;55012;47.562;18.414;2024-01-16T10:19:49;9.48;;;4.07;;
68192;SDS011;55012;47.562;18.414;2024-01-16T10:22:21;8.18;;;3.70;;
68192;SDS011;55012;47.562;18.414;2024-01-16T10:25:12;8.65;;;4.07;;
68192;SDS011;55012;47.562;18.414;2024-01-16T10:27:38;8.98;;;4.10;;
68192;SDS011;55012;47.562;18.414;2024-01-16T10:30:05;9.73;;;4.10;;
68192;SDS011;55012;47.562;18.414;2024-01-16T10:32:33;7.68;;;3.38;;
68192;SDS011;55012;47.562;18.414;2024-01-16T10:37:46;10.20;;;4.05;;
68192;SDS011;55012;47.562;18.414;2024-01-16T10:42:45;9.52;;;3.05;;
68192;SDS011;55012;47.562;18.414;2024-01-16T10:45:17;8.35;;;3.38;;
68192;SDS011;55012;47.562;18.414;2024-01-16T10:47:47;7.82;;;3.00;;
68192;SDS011;55012;47.562;18.414;2024-01-16T10:50:13;9.73;;;2.53;;
68192;SDS011;55012;47.562;18.414;2024-01-16T10:52:42;8.75;;;3.80;;
68192;SDS011;55012;47.562;18.414;2024-01-16T10:55:23;7.35;;;3.05;;
68192;SDS011;55012;47.562;18.414;2024-01-16T10:57:49;6.47;;;2.53;;
68192;SDS011;55012;47.562;18.414;2024-01-16T11:00:17;7.75;;;3.13;;
68192;SDS011;55012;47.562;18.414;2024-01-16T11:05:44;7.75;;;3.13;;
68192;SDS011;55012;47.562;18.414;2024-01-16T11:08:11;4.57;;;2.05;;
68192;SDS011;55012;47.562;18.414;2024-01-16T11:10:42;4.35;;;2.22;;
68192;SDS011;55012;47.562;18.414;2024-01-16T11:13:08;7.43;;;2.92;;
68192;SDS011;55012;47.562;18.414;2024-01-16T11:15:34;7.50;;;3.00;;
68192;SDS011;55012;47.562;18.414;2024-01-16T11:18:03;5.43;;;2.35;;
68192;SDS011;55012;47.562;18.414;2024-01-16T11:20:30;4.45;;;2.00;;
68192;SDS011;55012;47.562;18.414;2024-01-16T11:22:57;4.80;;;1.92;;
68192;SDS011;55012;47.562;18.414;2024-01-16T11:25:32;2.67;;;1.38;;
68192;SDS011;55012;47.562;18.414;2024-01-16T11:28:07;3.50;;;1.60;;
68192;SDS011;55012;47.562;18.414;2024-01-16T11:30:36;2.80;;;1.60;;
68192;SDS011;55012;47.562;18.414;2024-01-16T11:33:02;3.10;;;1.40;;
68192;SDS011;55012;47.562;18.414;2024-01-16T11:35:33;3.05;;;1.15;;
68192;SDS011;55012;47.562;18.414;2024-01-16T11:38:03;3.08;;;1.27;;
68192;SDS011;55012;47.562;18.414;2024-01-16T11:40:33;5.47;;;1.85;;
68192;SDS011;55012;47.562;18.414;2024-01-16T11:42:59;2.85;;;1.23;;
68192;SDS011;55012;47.562;18.414;2024-01-16T11:46:08;1.23;;;0.98;;
68192;SDS011;55012;47.562;18.414;2024-01-16T11:48:34;1.73;;;1.08;;
68192;SDS011;55012;47.562;18.414;2024-01-16T11:51:00;2.20;;;1.10;;
68192;SDS011;55012;47.562;18.414;2024-01-16T11:53:45;2.38;;;1.25;;
68192;SDS011;55012;47.562;18.414;2024-01-16T11:58:49;2.10;;;1.38;;
68192;SDS011;55012;47.562;18.414;2024-01-16T12:01:35;3.97;;;1.20;;
68192;SDS011;55012;47.562;18.414;2024-01-16T12:04:04;2.28;;;1.23;;
68192;SDS011;55012;47.562;18.414;2024-01-16T12:06:30;1.95;;;1.30;;
68192;SDS011;55012;47.562;18.414;2024-01-16T12:11:38;3.63;;;1.40;;
68192;SDS011;55012;47.562;18.414;2024-01-16T12:14:04;3.17;;;1.20;;
68192;SDS011;55012;47.562;18.414;2024-01-16T12:16:30;2.53;;;1.10;;
68192;SDS011;55012;47.562;18.414;2024-01-16T12:19:07;2.80;;;1.17;;
68192;SDS011;55012;47.562;18.414;2024-01-16T12:21:54;5.47;;;1.48;;
68192;SDS011;55012;47.562;18.414;2024-01-16T12:24:19;1.77;;;1.00;;
68192;SDS011;55012;47.562;18.414;2024-01-16T12:26:44;3.10;;;1.63;;
68192;SDS011;55012;47.562;18.414;2024-01-16T12:29:09;5.05;;;1.83;;
68192;SDS011;55012;47.562;18.414;2024-01-16T12:31:35;2.90;;;1.23;;
68192;SDS011;55012;47.562;18.414;2024-01-16T12:34:09;3.13;;;1.30;;
68192;SDS011;55012;47.562;18.414;2024-01-16T12:36:36;1.40;;;0.90;;
68192;SDS011;55012;47.562;18.414;2024-01-16T12:39:03;3.38;;;1.05;;
68192;SDS011;55012;47.562;18.414;2024-01-16T12:41:30;1.73;;;1.00;;
68192;SDS011;55012;47.562;18.414;2024-01-16T12:44:01;1.90;;;1.00;;
68192;SDS011;55012;47.562;18.414;2024-01-16T12:46:27;3.25;;;1.02;;
68192;SDS011;55012;47.562;18.414;2024-01-16T12:48:52;2.30;;;1.02;;
68192;SDS011;55012;47.562;18.414;2024-01-16T12:51:25;3.72;;;1.00;;
68192;SDS011;55012;47.562;18.414;2024-01-16T12:53:50;4.68;;;1.70;;
68192;SDS011;55012;47.562;18.414;2024-01-16T12:56:19;2.00;;;1.00;;
68192;SDS011;55012;47.562;18.414;2024-01-16T12:58:45;2.42;;;1.27;;
68192;SDS011;55012;47.562;18.414;2024-01-16T13:01:26;2.03;;;1.13;;
68192;SDS011;55012;47.562;18.414;2024-01-16T13:03:53;2.35;;;1.05;;
68192;SDS011;55012;47.562;18.414;2024-01-16T13:06:20;5.32;;;1.17;;
68192;SDS011;55012;47.562;18.414;2024-01-16T13:08:49;4.10;;;1.45;;
68192;SDS011;55012;47.562;18.414;2024-01-16T13:11:15;2.97;;;1.20;;
68192;SDS011;55012;47.562;18.414;2024-01-16T13:13:44;1.55;;;1.00;;
68192;SDS011;55012;47.562;18.414;2024-01-16T13:16:13;3.83;;;1.20;;
68192;SDS011;55012;47.562;18.414;2024-01-16T13:18:39;2.92;;;1.10;;
68192;SDS011;55012;47.562;18.414;2024-01-16T13:21:04;3.95;;;1.23;;
68192;SDS011;55012;47.562;18.414;2024-01-16T13:23:30;3.72;;;1.67;;
68192;SDS011;55012;47.562;18.414;2024-01-16T13:25:56;4.13;;;1.35;;
68192;SDS011;55012;47.562;18.414;2024-01-16T13:28:24;4.00;;;1.15;;
68192;SDS011;55012;47.562;18.414;2024-01-16T13:30:49;8.75;;;2.00;;
68192;SDS011;55012;47.562;18.414;2024-01-16T13:33:15;5.80;;;1.83;;
68192;SDS011;55012;47.562;18.414;2024-01-16T13:35:43;3.22;;;1.30;;
68192;SDS011;55012;47.562;18.414;2024-01-16T13:38:10;2.65;;;1.20;;
68192;SDS011;55012;47.562;18.414;2024-01-16T13:40:36;1.70;;;0.90;;
68192;SDS011;55012;47.562;18.414;2024-01-16T13:43:02;2.90;;;1.10;;
68192;SDS011;55012;47.562;18.414;2024-01-16T13:45:29;2.40;;;1.17;;
68192;SDS011;55012;47.562;18.414;2024-01-16T13:47:55;3.38;;;1.17;;
68192;SDS011;55012;47.562;18.414;2024-01-16T13:50:20;3.72;;;1.20;;
68192;SDS011;55012;47.562;18.414;2024-01-16T13:52:46;2.35;;;1.20;;
68192;SDS011;55012;47.562;18.414;2024-01-16T13:55:11;4.20;;;1.85;;
68192;SDS011;55012;47.562;18.414;2024-01-16T13:57:37;3.38;;;1.33;;
68192;SDS011;55012;47.562;18.414;2024-01-16T14:00:03;5.03;;;1.60;;
68192;SDS011;55012;47.562;18.414;2024-01-16T14:02:29;3.50;;;1.27;;
68192;SDS011;55012;47.562;18.414;2024-01-16T14:04:55;3.53;;;1.52;;
68192;SDS011;55012;47.562;18.414;2024-01-16T14:07:20;3.83;;;1.75;;
68192;SDS011;55012;47.562;18.414;2024-01-16T14:09:46;4.47;;;1.90;;
68192;SDS011;55012;47.562;18.414;2024-01-16T14:12:12;4.50;;;1.90;;
68192;SDS011;55012;47.562;18.414;2024-01-16T14:14:38;8.13;;;2.30;;
68192;SDS011;55012;47.562;18.414;2024-01-16T14:17:05;5.43;;;1.88;;
68192;SDS011;55012;47.562;18.414;2024-01-16T14:19:30;7.30;;;2.10;;
68192;SDS011;55012;47.562;18.414;2024-01-16T14:21:56;3.95;;;1.55;;
68192;SDS011;55012;47.562;18.414;2024-01-16T14:24:21;4.50;;;1.50;;
68192;SDS011;55012;47.562;18.414;2024-01-16T14:26:47;5.28;;;1.50;;
68192;SDS011;55012;47.562;18.414;2024-01-16T14:29:12;6.57;;;1.80;;
68192;SDS011;55012;47.562;18.414;2024-01-16T14:31:38;4.65;;;1.80;;
68192;SDS011;55012;47.562;18.414;2024-01-16T14:34:09;6.47;;;2.30;;
68192;SDS011;55012;47.562;18.414;2024-01-16T14:36:37;11.38;;;3.60;;
68192;SDS011;55012;47.562;18.414;2024-01-16T14:39:02;10.43;;;3.70;;